Wood, Pennsylvania
Current Conditions -  °F | °C
As of 4:25 AM on Wednesday 22 Oct 2014 (Local Time) from KAOO Reporting Station
Overcast Overcast  
Wind Chill: 50°   Ceiling: 2200
Heat Index: 50°   Visibility: 10mi
Dew Point: 46°   Wind: 13mph
Humidity: 86%   Direction: 10°N
Pressure: 29.97"   Gusts: NA
Location:  40.17°N, 78.14°W
Report Text: KAOO 220825Z AUTO 01011KT 10SM BKN022 BKN041 OVC065 10/08 A2997 RMK AO2 T01000078
Loading
Personal Weather Stations






























Interactive Weather Map
Tropical Storm Tracking
New forecast layout! Learn more

10-Day Weather Forecast

Advertisements
Track Severe Weather on mobile